Time;durP1;ratioP1;P1;durP2;ratioP2;P2;SDS_P1;SDS_P2;PMS_P1;PMS_P2;Temp;Humidity;BMP_temperature;BMP_pressure;BME280_temperature;BME280_humidity;BME280_pressure;Samples;Min_cycle;Max_cycle;Signal;HPM_P1;HPM_P2
2024/03/06 00:01:27;;;;;;;5.45;3.28;;;;;;;11.32;57.65;99696.16;4489637;31;31977;-80
2024/03/06 00:03:55;;;;;;;2.22;1.50;;;;;;;11.37;57.40;99696.78;4476465;31;34499;-80
2024/03/06 00:06:24;;;;;;;1.85;1.75;;;;;;;11.32;57.53;99696.16;4474523;31;34448;-80
2024/03/06 00:08:52;;;;;;;7.80;2.75;;;;;;;11.35;57.56;99706.59;4487540;31;34408;-80
2024/03/06 00:11:19;;;;;;;1.98;1.87;;;;;;;11.29;57.65;99712.16;4488324;31;33800;-80
2024/03/06 00:13:47;;;;;;;2.00;1.90;;;;;;;11.34;57.13;99701.38;4477385;31;34604;-80
2024/03/06 00:16:16;;;;;;;3.47;2.97;;;;;;;11.12;58.06;99709.47;4465117;31;34122;-80
2024/03/06 00:18:47;;;;;;;3.07;2.83;;;;;;;11.09;58.52;99707.84;4478033;31;32596;-80
2024/03/06 00:21:15;;;;;;;1.00;0.98;;;;;;;11.22;57.82;99711.59;4492761;31;33470;-80
2024/03/06 00:23:43;;;;;;;2.37;1.77;;;;;;;11.01;58.06;99713.50;4469690;31;33513;-80
2024/03/06 00:26:11;;;;;;;2.45;1.98;;;;;;;11.03;57.86;99708.97;4492990;31;34166;-80
2024/03/06 00:28:39;;;;;;;7.60;2.30;;;;;;;10.98;58.23;99708.34;4480313;31;32274;-80
2024/03/06 00:31:06;;;;;;;1.65;1.50;;;;;;;10.92;58.31;99713.91;4492953;31;33568;-80
2024/03/06 00:33:34;;;;;;;1.58;1.50;;;;;;;10.96;58.02;99704.03;4464211;31;33345;-80
2024/03/06 00:36:02;;;;;;;2.47;2.30;;;;;;;10.98;57.89;99710.13;4464704;31;33978;-80
2024/03/06 00:38:30;;;;;;;1.23;1.15;;;;;;;10.78;58.10;99711.06;4481940;31;33334;-80
2024/03/06 00:40:58;;;;;;;4.95;2.25;;;;;;;10.87;57.77;99718.56;4477758;31;33866;-80
2024/03/06 00:43:25;;;;;;;2.55;2.40;;;;;;;10.81;58.16;99716.19;4475745;31;34348;-80
2024/03/06 00:45:53;;;;;;;3.60;2.05;;;;;;;10.82;57.96;99711.75;4477769;31;34735;-81
2024/03/06 00:48:21;;;;;;;3.00;1.70;;;;;;;10.79;57.93;99720.69;4487123;31;34051;-80
2024/03/06 00:50:48;;;;;;;2.95;1.58;;;;;;;10.56;58.63;99720.88;4478376;31;32795;-81
2024/03/06 00:53:16;;;;;;;1.30;1.20;;;;;;;10.54;58.69;99720.06;4465135;31;33412;-80
2024/03/06 00:55:44;;;;;;;4.55;4.15;;;;;;;10.58;58.13;99713.72;4490150;31;34147;-80
2024/03/06 00:58:12;;;;;;;2.28;2.08;;;;;;;10.48;58.43;99719.41;4491119;31;33237;-81
2024/03/06 01:00:39;;;;;;;2.17;2.08;;;;;;;10.37;59.16;99720.84;4490647;31;34353;-81
2024/03/06 01:03:07;;;;;;;4.47;2.37;;;;;;;10.40;58.89;99724.19;4478723;31;33596;-81
2024/03/06 01:05:35;;;;;;;1.67;1.55;;;;;;;10.37;58.89;99721.69;4489473;31;34777;-81
2024/03/06 01:08:03;;;;;;;3.30;2.60;;;;;;;10.34;59.36;99721.81;4475124;31;33061;-81
2024/03/06 01:10:31;;;;;;;3.72;2.67;;;;;;;10.31;59.38;99721.97;4479595;31;33974;-81
2024/03/06 01:12:59;;;;;;;4.28;2.85;;;;;;;10.13;59.77;99722.72;4478664;31;33024;-81
2024/03/06 01:15:28;;;;;;;5.50;2.37;;;;;;;10.18;59.76;99720.75;4476945;31;33710;-81
2024/03/06 01:17:57;;;;;;;1.17;1.12;;;;;;;10.22;59.47;99722.34;4492373;31;32555;-80
2024/03/06 01:20:25;;;;;;;3.65;2.00;;;;;;;10.13;59.39;99720.09;4464103;31;32961;-80
2024/03/06 01:22:52;;;;;;;2.35;2.25;;;;;;;10.01;59.66;99730.22;4478091;31;33759;-81
2024/03/06 01:25:21;;;;;;;1.75;1.62;;;;;;;10.17;58.88;99730.44;4480690;31;33764;-81
2024/03/06 01:27:49;;;;;;;3.60;2.65;;;;;;;9.93;59.60;99735.00;4478536;31;32833;-80
2024/03/06 01:30:17;;;;;;;6.32;3.28;;;;;;;10.07;59.51;99733.56;4490226;31;34454;-79
2024/03/06 01:32:46;;;;;;;2.40;2.17;;;;;;;10.05;59.14;99727.47;4478300;31;34010;-79
2024/03/06 01:35:13;;;;;;;3.47;3.17;;;;;;;10.08;58.80;99729.97;4489674;31;33849;-79
2024/03/06 01:37:41;;;;;;;0.93;0.88;;;;;;;10.08;58.43;99729.97;4478127;31;33869;-79
2024/03/06 01:40:10;;;;;;;4.35;3.20;;;;;;;9.86;59.05;99730.88;4475196;31;34990;-79
2024/03/06 01:42:38;;;;;;;3.37;3.08;;;;;;;9.78;59.05;99732.09;4480334;31;33708;-79
2024/03/06 01:45:07;;;;;;;3.17;2.95;;;;;;;9.79;59.37;99734.72;4477534;31;33115;-79
2024/03/06 01:47:35;;;;;;;2.65;2.22;;;;;;;9.75;59.30;99733.13;4488963;31;34038;-79
2024/03/06 01:50:06;;;;;;;3.08;0.73;;;;;;;9.52;59.78;99730.56;4489322;31;33559;-79
2024/03/06 01:52:33;;;;;;;6.40;3.25;;;;;;;9.40;59.71;99727.50;4479934;31;34802;-79
2024/03/06 01:55:04;;;;;;;4.75;2.10;;;;;;;9.47;59.90;99728.09;4476192;31;34679;-79
2024/03/06 01:57:34;;;;;;;2.00;1.90;;;;;;;9.60;59.47;99731.12;4489894;31;33624;-79
2024/03/06 02:00:03;;;;;;;6.78;4.12;;;;;;;9.57;59.30;99731.22;4482521;31;33855;-79
2024/03/06 02:02:32;;;;;;;1.98;1.33;;;;;;;9.59;59.26;99730.25;4476264;31;33149;-79
2024/03/06 02:05:00;;;;;;;4.00;3.70;;;;;;;9.35;59.31;99734.75;4492283;31;34422;-79
2024/03/06 02:07:28;;;;;;;2.60;2.42;;;;;;;9.21;60.09;99737.06;4492952;31;33256;-79
2024/03/06 02:09:57;;;;;;;7.03;2.67;;;;;;;9.10;60.52;99741.87;4464189;31;33770;-79
2024/03/06 02:12:25;;;;;;;3.50;2.62;;;;;;;9.26;59.92;99740.38;4477186;31;33964;-79
2024/03/06 02:14:52;;;;;;;2.83;2.55;;;;;;;9.03;60.67;99740.41;4475797;31;32992;-80
2024/03/06 02:17:21;;;;;;;2.17;1.58;;;;;;;9.18;60.23;99747.72;4451126;31;34405;-79
2024/03/06 02:19:49;;;;;;;2.45;1.95;;;;;;;9.14;59.91;99746.09;4491071;31;34722;-80
2024/03/06 02:22:17;;;;;;;2.95;2.67;;;;;;;8.97;60.34;99739.72;4466094;31;32327;-79
2024/03/06 02:24:47;;;;;;;2.62;2.30;;;;;;;9.08;60.39;99741.94;4492797;31;34443;-79
2024/03/06 02:27:17;;;;;;;10.82;5.05;;;;;;;9.12;59.79;99732.16;4476073;31;32561;-79
2024/03/06 02:29:45;;;;;;;4.37;2.95;;;;;;;8.97;60.57;99729.19;4476259;31;33441;-79
2024/03/06 02:32:18;;;;;;;3.55;3.25;;;;;;;8.96;60.31;99737.13;4479190;31;31536;-80
2024/03/06 02:34:46;;;;;;;2.50;2.00;;;;;;;8.79;60.71;99742.19;4478991;31;33869;-80
2024/03/06 02:37:13;;;;;;;3.12;2.92;;;;;;;8.88;60.42;99740.06;4479577;31;33511;-81
2024/03/06 02:39:41;;;;;;;2.37;2.03;;;;;;;8.89;60.43;99740.91;4481615;31;33436;-80
2024/03/06 02:42:09;;;;;;;2.70;2.05;;;;;;;9.01;59.95;99739.59;4471203;31;33319;-79
2024/03/06 02:44:37;;;;;;;6.93;2.85;;;;;;;9.05;59.72;99742.03;4478449;31;34280;-79
2024/03/06 02:47:05;;;;;;;1.85;1.62;;;;;;;8.98;59.65;99741.44;4486690;31;33512;-79
2024/03/06 02:49:33;;;;;;;1.40;1.30;;;;;;;8.87;59.95;99740.97;4475695;31;33706;-80
2024/03/06 02:52:01;;;;;;;1.75;1.52;;;;;;;8.92;60.04;99733.75;4475180;31;31817;-79
2024/03/06 02:54:30;;;;;;;1.98;1.80;;;;;;;8.75;60.46;99744.06;4476800;31;33415;-79
2024/03/06 02:56:58;;;;;;;2.10;1.67;;;;;;;8.80;60.36;99742.13;4452879;31;33309;-79
2024/03/06 02:59:26;;;;;;;1.58;1.50;;;;;;;8.71;60.74;99745.09;4478807;31;32306;-79
2024/03/06 03:01:54;;;;;;;2.70;2.60;;;;;;;8.60;60.77;99747.28;4492001;31;34112;-79
2024/03/06 03:04:22;;;;;;;2.12;1.92;;;;;;;8.70;60.13;99746.88;4477571;31;34071;-79
2024/03/06 03:06:50;;;;;;;2.92;0.75;;;;;;;8.75;60.52;99748.47;4476366;31;33410;-80
2024/03/06 03:09:18;;;;;;;4.87;2.75;;;;;;;8.71;60.50;99748.56;4478513;31;33034;-79
2024/03/06 03:11:46;;;;;;;3.60;2.70;;;;;;;8.52;61.45;99751.94;4477158;31;34157;-80
2024/03/06 03:14:14;;;;;;;1.05;1.05;;;;;;;8.55;61.36;99752.69;4488097;31;34536;-79
2024/03/06 03:16:44;;;;;;;4.55;3.15;;;;;;;8.65;60.89;99754.06;4466714;31;32862;-79
2024/03/06 03:19:12;;;;;;;1.95;1.85;;;;;;;8.63;60.59;99755.88;4478666;31;32973;-80
2024/03/06 03:21:44;;;;;;;2.58;1.35;;;;;;;8.67;60.94;99762.75;4490135;31;33091;-80
2024/03/06 03:24:11;;;;;;;4.10;1.93;;;;;;;8.49;61.61;99763.41;4457936;31;34174;-79
2024/03/06 03:26:41;;;;;;;2.75;2.17;;;;;;;8.53;61.39;99766.81;4478898;31;32345;-80
2024/03/06 03:29:10;;;;;;;5.70;3.10;;;;;;;8.33;61.94;99763.09;4479447;31;33962;-80
2024/03/06 03:31:38;;;;;;;4.32;1.80;;;;;;;8.51;61.49;99763.38;4475573;31;34717;-80
2024/03/06 03:34:06;;;;;;;3.70;1.15;;;;;;;8.59;60.50;99766.59;4488961;31;34047;-80
2024/03/06 03:36:34;;;;;;;4.47;3.97;;;;;;;8.48;60.94;99772.25;4472097;31;33486;-80
2024/03/06 03:39:03;;;;;;;6.30;1.98;;;;;;;8.65;60.28;99769.88;4478273;31;34477;-80
2024/03/06 03:41:31;;;;;;;3.62;2.45;;;;;;;8.63;60.50;99776.09;4474965;31;33866;-80
2024/03/06 03:43:59;;;;;;;1.73;1.37;;;;;;;8.53;60.92;99772.94;4476894;31;32696;-79
2024/03/06 03:46:27;;;;;;;2.25;2.08;;;;;;;8.60;60.76;99778.84;4461813;31;32670;-79
2024/03/06 03:48:55;;;;;;;3.62;2.33;;;;;;;8.64;60.42;99778.69;4479392;31;33329;-79
2024/03/06 03:51:22;;;;;;;2.47;2.28;;;;;;;8.73;59.95;99766.94;4475502;31;33461;-79
2024/03/06 03:53:52;;;;;;;2.78;2.55;;;;;;;8.32;62.44;99782.41;4475997;31;34443;-80
2024/03/06 03:56:21;;;;;;;2.83;2.42;;;;;;;8.43;61.49;99785.56;4474717;31;33343;-79
2024/03/06 03:58:49;;;;;;;3.00;2.83;;;;;;;8.52;61.30;99783.53;4476598;31;33915;-80
2024/03/06 04:01:17;;;;;;;3.62;3.25;;;;;;;8.51;61.35;99792.34;4479226;31;33694;-80
2024/03/06 04:03:45;;;;;;;4.45;2.47;;;;;;;8.60;60.86;99778.84;4466173;31;35787;-80
2024/03/06 04:06:12;;;;;;;1.33;1.23;;;;;;;8.54;61.10;99789.56;4479734;31;33110;-81
2024/03/06 04:08:41;;;;;;;2.25;2.15;;;;;;;8.51;61.27;99787.94;4468268;31;34104;-80
2024/03/06 04:11:08;;;;;;;0.60;0.60;;;;;;;8.52;61.09;99780.87;4464122;31;33344;-81
2024/03/06 04:13:37;;;;;;;13.70;5.43;;;;;;;8.53;61.05;99775.56;4480098;31;34716;-79
2024/03/06 04:16:05;;;;;;;2.28;2.08;;;;;;;8.64;60.46;99783.97;4492516;31;33997;-80
2024/03/06 04:18:34;;;;;;;1.75;1.65;;;;;;;8.41;61.33;99783.91;4490899;31;33759;-81
2024/03/06 04:21:05;;;;;;;2.65;2.45;;;;;;;8.28;62.23;99796.59;4477796;31;33740;-81
2024/03/06 04:23:33;;;;;;;2.12;1.98;;;;;;;8.53;61.70;99799.25;4492631;31;34051;-80
2024/03/06 04:26:02;;;;;;;7.72;3.80;;;;;;;8.54;61.31;99797.47;4479791;31;32959;-78
2024/03/06 04:28:29;;;;;;;3.70;3.35;;;;;;;8.57;61.19;99800.00;4479617;31;33746;-78
2024/03/06 04:30:57;;;;;;;2.65;1.92;;;;;;;8.58;61.06;99793.81;4476666;31;32592;-78
2024/03/06 04:33:25;;;;;;;4.43;2.17;;;;;;;8.49;61.07;99799.41;4476506;31;33120;-78
2024/03/06 04:35:53;;;;;;;1.40;1.37;;;;;;;8.45;61.64;99804.81;4493585;31;33420;-79
2024/03/06 04:38:21;;;;;;;1.65;1.55;;;;;;;8.49;61.37;99800.25;4487747;31;33469;-79
2024/03/06 04:40:49;;;;;;;2.75;2.28;;;;;;;8.39;61.65;99806.75;4476417;31;33466;-80
2024/03/06 04:43:16;;;;;;;3.55;2.47;;;;;;;8.39;61.50;99802.34;4478336;31;34110;-80
2024/03/06 04:45:44;;;;;;;8.27;3.87;;;;;;;8.26;61.72;99814.22;4489616;31;33505;-80
2024/03/06 04:48:12;;;;;;;8.57;4.47;;;;;;;8.22;61.87;99815.22;4464803;31;32530;-79
2024/03/06 04:50:41;;;;;;;4.57;4.18;;;;;;;8.24;62.03;99817.78;4475482;31;32601;-79
2024/03/06 04:53:10;;;;;;;6.00;3.55;;;;;;;8.21;61.84;99810.84;4479852;31;34873;-80
2024/03/06 04:55:38;;;;;;;3.95;2.25;;;;;;;8.32;61.14;99814.00;4479008;31;34342;-79
2024/03/06 04:58:06;;;;;;;3.47;3.00;;;;;;;8.21;61.70;99831.88;4475801;31;34213;-79
2024/03/06 05:00:34;;;;;;;4.12;2.37;;;;;;;8.20;61.45;99830.19;4464404;31;33305;-79
2024/03/06 05:03:01;;;;;;;2.05;1.85;;;;;;;8.29;60.74;99827.25;4478235;31;34829;-79
2024/03/06 05:05:47;;;;;;;2.53;1.62;;;;;;;8.18;61.66;99826.75;4468348;31;35357;-79
2024/03/06 05:08:32;;;;;;;1.92;1.73;;;;;;;8.14;62.03;99827.75;4471565;31;32462;-79
2024/03/06 05:11:17;;;;;;;3.03;2.83;;;;;;;8.18;61.75;99826.75;4480035;31;34305;-79
2024/03/06 05:14:02;;;;;;;3.28;2.72;;;;;;;8.05;62.17;99825.44;4468306;31;32797;-80
2024/03/06 05:16:48;;;;;;;3.05;1.70;;;;;;;7.95;62.28;99822.25;4478078;31;35433;-79
2024/03/06 05:19:34;;;;;;;1.60;1.50;;;;;;;8.03;62.56;99829.91;4482894;31;33107;-79
2024/03/06 05:22:19;;;;;;;1.58;1.48;;;;;;;8.06;62.75;99824.50;4467203;31;34055;-80
2024/03/06 05:25:05;;;;;;;2.70;1.55;;;;;;;8.15;62.29;99832.09;4466486;31;33961;-80
2024/03/06 05:27:50;;;;;;;2.15;2.05;;;;;;;8.13;62.42;99828.69;4483600;31;34321;-80
2024/03/06 05:30:35;;;;;;;2.55;1.62;;;;;;;8.06;62.26;99832.41;4468508;31;33284;-79
2024/03/06 05:33:21;;;;;;;2.65;2.47;;;;;;;8.08;62.12;99831.47;4478752;31;33992;-78
2024/03/06 05:36:06;;;;;;;2.55;2.35;;;;;;;8.03;62.45;99832.53;4480820;31;34271;-79
2024/03/06 05:38:52;;;;;;;2.60;2.40;;;;;;;8.15;61.84;99837.38;4457841;31;35476;-80
2024/03/06 05:41:37;;;;;;;0.98;0.98;;;;;;;8.03;62.22;99824.63;4481998;31;32659;-80
2024/03/06 05:44:22;;;;;;;7.03;2.58;;;;;;;8.12;62.19;99827.81;4470390;31;34843;-79
2024/03/06 05:47:12;;;;;;;1.83;1.73;;;;;;;8.03;62.39;99833.37;4469334;31;32920;-80
2024/03/06 05:49:57;;;;;;;6.30;3.75;;;;;;;8.10;62.22;99829.62;4466499;31;32477;-80
2024/03/06 05:52:42;;;;;;;1.65;1.55;;;;;;;8.16;61.88;99825.94;4466836;31;32411;-80
2024/03/06 05:55:27;;;;;;;5.10;1.98;;;;;;;8.13;62.57;99831.31;4481667;31;33413;-79
2024/03/06 05:58:12;;;;;;;4.37;4.03;;;;;;;8.00;62.61;99832.63;4479243;31;33751;-79
2024/03/06 06:00:44;;;;;;;6.55;2.58;;;;;;;8.04;62.62;99836.88;4490381;31;33405;-79
2024/03/06 06:03:12;;;;;;;2.00;1.90;;;;;;;8.23;62.22;99842.38;4477635;31;32861;-79
2024/03/06 06:05:40;;;;;;;1.45;1.40;;;;;;;7.84;63.62;99842.78;4490985;31;33130;-80
2024/03/06 06:08:09;;;;;;;8.18;5.25;;;;;;;7.89;64.03;99848.75;4491296;31;34490;-79
2024/03/06 06:10:37;;;;;;;4.47;4.18;;;;;;;8.06;63.93;99849.03;4489459;31;33948;-80
2024/03/06 06:13:05;;;;;;;2.67;1.67;;;;;;;8.54;62.27;99844.84;4463779;31;34173;-79
2024/03/06 06:15:33;;;;;;;1.95;1.85;;;;;;;8.57;61.98;99850.00;4478876;31;34352;-79
2024/03/06 06:18:01;;;;;;;2.65;2.40;;;;;;;8.36;62.76;99847.22;4477031;31;34781;-80
2024/03/06 06:20:29;;;;;;;4.05;2.15;;;;;;;8.29;63.69;99850.91;4478342;31;34423;-80
2024/03/06 06:22:56;;;;;;;3.53;3.20;;;;;;;8.41;63.60;99849.69;4462621;31;32998;-81
2024/03/06 06:25:24;;;;;;;2.80;2.50;;;;;;;8.46;63.54;99853.88;4464684;31;35452;-80
2024/03/06 06:27:52;;;;;;;2.90;2.42;;;;;;;8.54;63.31;99848.34;4478346;31;34479;-80
2024/03/06 06:30:20;;;;;;;2.67;2.47;;;;;;;8.58;63.87;99847.31;4488671;31;34383;-79
2024/03/06 06:32:47;;;;;;;4.43;4.00;;;;;;;8.86;63.13;99844.56;4476958;31;32914;-79
2024/03/06 06:35:16;;;;;;;7.03;3.22;;;;;;;8.92;63.36;99856.66;4476723;31;33415;-80
2024/03/06 06:37:44;;;;;;;1.87;1.10;;;;;;;8.89;64.02;99852.38;4475786;31;34832;-79
2024/03/06 06:40:12;;;;;;;3.17;2.85;;;;;;;9.05;63.52;99854.44;4476308;31;33630;-80
2024/03/06 06:42:49;;;;;;;3.92;2.97;;;;;;;9.11;63.92;99854.22;4475880;31;31447;-79
2024/03/06 06:45:18;;;;;;;4.45;3.15;;;;;;;9.21;63.88;99850.34;4475781;31;33517;-80
2024/03/06 06:47:46;;;;;;;2.55;2.42;;;;;;;9.30;63.90;99849.97;4473962;31;33095;-79
2024/03/06 06:50:14;;;;;;;2.60;2.50;;;;;;;9.41;63.63;99847.81;4486370;31;32851;-79
2024/03/06 06:52:42;;;;;;;1.58;1.50;;;;;;;9.39;64.37;99857.53;4475230;31;33985;-79
2024/03/06 06:55:11;;;;;;;4.10;3.53;;;;;;;9.67;63.52;99851.19;4472821;31;32812;-78
2024/03/06 06:57:41;;;;;;;4.28;2.45;;;;;;;9.51;64.55;99852.72;4470971;31;32967;-78
2024/03/06 07:00:12;;;;;;;7.10;2.45;;;;;;;9.55;64.05;99860.47;4477480;31;33258;-78
2024/03/06 07:02:43;;;;;;;3.33;2.92;;;;;;;9.71;63.88;99860.72;4473833;31;31508;-78
2024/03/06 07:05:11;;;;;;;5.32;4.53;;;;;;;9.92;63.56;99859.00;4487920;31;33628;-79
2024/03/06 07:07:39;;;;;;;8.43;5.57;;;;;;;10.15;63.08;99855.44;4471880;31;34481;-79
2024/03/06 07:10:08;;;;;;;2.65;2.33;;;;;;;10.29;62.62;99860.16;4478528;31;33544;-79
2024/03/06 07:12:36;;;;;;;3.80;2.58;;;;;;;10.29;61.97;99855.75;4485165;31;31207;-79
2024/03/06 07:15:05;;;;;;;4.65;2.22;;;;;;;10.03;63.13;99858.59;4476107;31;33232;-79
2024/03/06 07:17:33;;;;;;;2.37;2.25;;;;;;;10.48;62.03;99861.13;4472700;31;32305;-79
2024/03/06 07:20:01;;;;;;;3.70;3.40;;;;;;;10.74;61.46;99865.31;4463295;31;34307;-79
2024/03/06 07:22:29;;;;;;;1.37;1.30;;;;;;;10.56;62.22;99863.44;4486596;31;34614;-79
2024/03/06 07:24:57;;;;;;;4.40;3.08;;;;;;;10.81;62.15;99864.09;4474924;31;33532;-79
2024/03/06 07:27:25;;;;;;;3.12;2.85;;;;;;;11.16;60.88;99864.34;4464534;31;33322;-79
2024/03/06 07:29:53;;;;;;;4.12;2.17;;;;;;;11.13;60.69;99861.81;4489845;31;34296;-79
2024/03/06 07:32:21;;;;;;;8.23;4.28;;;;;;;11.12;60.69;99860.97;4472256;31;34176;-79
2024/03/06 07:34:49;;;;;;;4.47;2.78;;;;;;;11.34;60.38;99857.34;4466495;31;33777;-79
2024/03/06 07:37:17;;;;;;;3.37;3.15;;;;;;;11.56;60.00;99867.78;4488443;31;33702;-79
2024/03/06 07:39:45;;;;;;;4.35;3.08;;;;;;;11.52;60.23;99862.63;4463078;31;30922;-79
2024/03/06 07:42:15;;;;;;;4.20;3.92;;;;;;;11.47;60.53;99859.34;4462988;31;34154;-79
2024/03/06 07:44:43;;;;;;;6.22;4.25;;;;;;;11.11;61.34;99861.00;4489262;31;33315;-79
2024/03/06 07:47:11;;;;;;;9.90;4.62;;;;;;;11.43;60.63;99868.34;4476535;31;34814;-79
2024/03/06 07:49:40;;;;;;;4.45;3.50;;;;;;;11.59;60.65;99868.50;4486953;31;34124;-79
2024/03/06 07:52:08;;;;;;;4.53;3.42;;;;;;;11.77;60.33;99858.81;4490890;31;33307;-79
2024/03/06 07:54:36;;;;;;;8.30;4.35;;;;;;;12.01;59.29;99865.66;4490272;31;33954;-79
2024/03/06 07:57:04;;;;;;;3.80;2.83;;;;;;;12.24;58.71;99867.12;4475674;31;34192;-80
2024/03/06 07:59:31;;;;;;;9.48;3.47;;;;;;;12.35;58.86;99871.94;4478527;31;33518;-79
2024/03/06 08:02:01;;;;;;;1.17;1.15;;;;;;;12.38;58.43;99858.50;4479027;31;33194;-79
2024/03/06 08:04:29;;;;;;;10.45;5.75;;;;;;;12.36;58.03;99864.84;4476908;31;34001;-79
2024/03/06 08:06:57;;;;;;;4.80;3.83;;;;;;;12.37;57.89;99872.69;4475250;31;34960;-79
2024/03/06 08:09:28;;;;;;;3.53;2.58;;;;;;;12.32;57.96;99873.84;4477180;31;34344;-79
2024/03/06 08:11:56;;;;;;;3.50;2.50;;;;;;;12.34;58.60;99872.84;4476747;31;34048;-79
2024/03/06 08:14:25;;;;;;;2.30;2.17;;;;;;;12.47;58.03;99873.94;4489729;31;33058;-80
2024/03/06 08:16:54;;;;;;;8.63;5.10;;;;;;;12.44;57.75;99874.13;4491074;31;31287;-79
2024/03/06 08:19:24;;;;;;;5.78;3.33;;;;;;;12.33;57.43;99873.78;4474628;31;32863;-79
2024/03/06 08:21:52;;;;;;;4.15;2.90;;;;;;;12.24;57.90;99876.88;4490018;31;32454;-79
2024/03/06 08:24:20;;;;;;;4.57;3.25;;;;;;;12.21;58.32;99885.00;4487761;31;33902;-79
2024/03/06 08:26:49;;;;;;;3.50;3.20;;;;;;;12.22;58.29;99884.03;4476936;31;32955;-79
2024/03/06 08:29:17;;;;;;;2.60;2.50;;;;;;;12.17;58.94;99891.34;4472649;31;33497;-79
2024/03/06 08:31:45;;;;;;;1.80;1.65;;;;;;;12.30;58.86;99882.75;4477006;31;33307;-79
2024/03/06 08:34:13;;;;;;;3.25;2.50;;;;;;;12.43;58.68;99879.47;4477086;31;32159;-79
2024/03/06 08:36:41;;;;;;;1.50;1.45;;;;;;;12.51;57.70;99880.81;4476027;31;34146;-79
2024/03/06 08:39:13;;;;;;;5.57;2.70;;;;;;;12.59;57.13;99883.06;4470021;31;33186;-79
2024/03/06 08:41:42;;;;;;;4.22;3.50;;;;;;;12.70;57.36;99887.81;4476056;31;33523;-79
2024/03/06 08:44:09;;;;;;;3.62;3.42;;;;;;;12.70;57.13;99880.72;4475344;31;34240;-79
2024/03/06 08:46:37;;;;;;;2.92;2.70;;;;;;;12.87;55.93;99882.53;4476174;31;32912;-79
2024/03/06 08:49:05;;;;;;;2.17;2.00;;;;;;;12.88;56.47;99883.38;4489667;31;33682;-80
2024/03/06 08:51:36;;;;;;;8.55;3.67;;;;;;;12.74;57.81;99889.38;4476114;31;34154;-79
2024/03/06 08:54:04;;;;;;;5.75;2.17;;;;;;;13.28;56.35;99882.16;4487773;31;33982;-79
2024/03/06 08:56:34;;;;;;;2.10;1.83;;;;;;;13.41;55.82;99877.06;4488915;31;33494;-79
2024/03/06 08:59:02;;;;;;;7.28;5.05;;;;;;;13.25;56.21;99877.88;4475944;31;34241;-79
2024/03/06 09:01:30;;;;;;;7.87;2.58;;;;;;;13.11;55.84;99875.06;4473227;31;33279;-80
2024/03/06 09:03:58;;;;;;;3.92;2.00;;;;;;;13.57;55.57;99873.47;4487130;31;33228;-79
2024/03/06 09:06:28;;;;;;;2.62;2.08;;;;;;;14.19;54.02;99878.00;4491006;31;34227;-79
2024/03/06 09:08:56;;;;;;;3.22;2.15;;;;;;;14.51;52.53;99877.03;4488781;31;33780;-79
2024/03/06 09:11:24;;;;;;;2.67;1.45;;;;;;;14.56;52.78;99879.41;4473240;31;32040;-79
2024/03/06 09:13:52;;;;;;;3.70;2.45;;;;;;;14.73;51.55;99881.09;4473652;31;33341;-80
2024/03/06 09:16:19;;;;;;;3.30;2.35;;;;;;;14.70;51.98;99881.25;4475389;31;33434;-80
2024/03/06 09:18:47;;;;;;;3.47;2.80;;;;;;;14.60;52.76;99881.78;4464731;31;32707;-81
2024/03/06 09:21:15;;;;;;;4.05;2.83;;;;;;;14.61;52.92;99885.31;4463559;31;33178;-79
2024/03/06 09:23:43;;;;;;;2.47;2.03;;;;;;;14.98;50.91;99883.97;4474988;31;34387;-79
2024/03/06 09:26:11;;;;;;;3.42;3.12;;;;;;;15.01;51.67;99878.47;4473832;31;34528;-79
2024/03/06 09:28:39;;;;;;;2.00;1.90;;;;;;;15.05;51.76;99877.34;4479644;31;33507;-80
2024/03/06 09:31:07;;;;;;;5.15;3.17;;;;;;;15.21;50.63;99871.06;4474958;31;33982;-79
2024/03/06 09:33:35;;;;;;;2.90;0.73;;;;;;;15.25;50.15;99870.78;4471247;31;33547;-79
2024/03/06 09:36:03;;;;;;;3.08;2.65;;;;;;;14.98;51.94;99876.00;4494342;31;32582;-80
2024/03/06 09:38:31;;;;;;;4.18;3.05;;;;;;;15.25;50.86;99872.59;4487410;31;33838;-79
2024/03/06 09:40:59;;;;;;;2.20;1.60;;;;;;;15.31;50.72;99873.06;4465663;31;33140;-79
2024/03/06 09:43:27;;;;;;;4.32;1.58;;;;;;;15.41;50.20;99868.03;4476366;31;33224;-80
2024/03/06 09:45:58;;;;;;;2.67;1.75;;;;;;;15.35;50.76;99865.75;4477577;31;34705;-79
2024/03/06 09:48:30;;;;;;;2.97;2.78;;;;;;;15.38;50.00;99862.88;4474265;31;33562;-80
2024/03/06 09:51:02;;;;;;;2.55;2.33;;;;;;;15.46;49.67;99860.59;4479508;31;32668;-79
2024/03/06 09:53:29;;;;;;;0.77;0.77;;;;;;;15.45;49.43;99856.25;4463451;31;33009;-79
2024/03/06 09:55:57;;;;;;;0.40;0.40;;;;;;;15.47;49.06;99854.31;4462148;31;32959;-80
2024/03/06 09:58:25;;;;;;;1.50;1.20;;;;;;;15.64;47.80;99847.97;4489334;31;33252;-80
2024/03/06 10:00:55;;;;;;;2.58;1.83;;;;;;;15.91;48.51;99847.19;4475046;31;33416;-80
2024/03/06 10:03:23;;;;;;;1.23;0.88;;;;;;;15.89;48.09;99847.25;4484202;31;34380;-80
2024/03/06 10:05:51;;;;;;;11.90;3.50;;;;;;;16.29;47.35;99845.50;4486919;31;33989;-80
2024/03/06 10:08:21;;;;;;;2.53;2.33;;;;;;;16.41;46.72;99835.81;4476222;31;33530;-80
2024/03/06 10:10:50;;;;;;;3.03;2.15;;;;;;;16.50;46.95;99837.88;4485929;31;34784;-80
2024/03/06 10:13:18;;;;;;;4.03;2.40;;;;;;;16.80;45.55;99837.59;4459524;31;34307;-80
2024/03/06 10:15:57;;;;;;;2.35;2.20;;;;;;;16.76;46.13;99840.59;4488099;31;33987;-80
2024/03/06 10:18:29;;;;;;;2.70;2.40;;;;;;;16.73;46.14;99832.81;4475993;31;32960;-80
2024/03/06 10:20:57;;;;;;;;;;;;;;;17.47;44.05;99839.16;4473770;31;33777;-80
2024/03/06 10:23:25;;;;;;;1.58;1.48;;;;;;;17.62;43.98;99825.59;4488631;31;34362;-80
2024/03/06 10:25:53;;;;;;;1.55;1.45;;;;;;;17.56;43.68;99834.03;4462510;31;33144;-80
2024/03/06 10:28:22;;;;;;;3.90;2.87;;;;;;;17.12;44.63;99837.19;4476515;31;34261;-81
2024/03/06 10:30:52;;;;;;;3.20;1.73;;;;;;;17.29;44.46;99833.34;4463959;31;32715;-80
2024/03/06 10:33:19;;;;;;;1.30;1.20;;;;;;;17.69;43.04;99823.31;4488016;31;32929;-80
2024/03/06 10:35:48;;;;;;;1.33;0.88;;;;;;;17.16;44.14;99830.69;4475315;31;33404;-81
2024/03/06 10:38:16;;;;;;;5.93;2.92;;;;;;;17.60;43.75;99823.97;4462088;31;33687;-81
2024/03/06 10:40:44;;;;;;;3.60;1.42;;;;;;;17.39;43.22;99826.41;4488624;31;33817;-80
2024/03/06 10:43:12;;;;;;;20.75;1.98;;;;;;;17.28;44.88;99831.63;4473257;31;32804;-81
2024/03/06 10:45:48;;;;;;;3.15;2.22;;;;;;;17.54;43.57;99816.44;4489630;31;34609;-81
2024/03/06 10:48:18;;;;;;;1.70;1.60;;;;;;;17.68;43.30;99816.28;4486097;31;33494;-80
2024/03/06 10:50:47;;;;;;;8.48;3.70;;;;;;;17.80;43.13;99819.88;4477732;31;33927;-80
2024/03/06 10:53:16;;;;;;;1.23;1.12;;;;;;;17.88;43.95;99817.50;4486201;31;33164;-80
2024/03/06 10:55:51;;;;;;;2.83;1.27;;;;;;;18.13;41.59;99812.03;4476911;31;34800;-80
2024/03/06 10:58:20;;;;;;;2.35;2.15;;;;;;;18.13;41.81;99809.38;4465053;31;32257;-80
2024/03/06 11:00:48;;;;;;;2.25;2.12;;;;;;;18.39;41.67;99814.59;4477849;31;33950;-79
2024/03/06 11:03:16;;;;;;;0.90;0.90;;;;;;;18.66;40.42;99811.66;4475820;31;34815;-81
2024/03/06 11:05:50;;;;;;;1.90;1.65;;;;;;;18.57;40.57;99805.19;4460525;31;33581;-81
2024/03/06 11:08:20;;;;;;;0.80;0.80;;;;;;;18.75;38.95;99797.56;4467924;31;32514;-82
2024/03/06 11:10:48;;;;;;;2.10;1.90;;;;;;;18.86;39.86;99791.41;4493119;31;33691;-81
2024/03/06 11:13:24;;;;;;;1.55;1.45;;;;;;;18.57;40.50;99796.31;4479396;31;33576;-81
2024/03/06 11:15:53;;;;;;;1.58;1.48;;;;;;;18.73;38.65;99782.63;4480133;31;34095;-81
2024/03/06 11:18:36;;;;;;;1.80;1.48;;;;;;;18.37;38.65;99779.09;4496605;31;33133;-81
2024/03/06 11:21:04;;;;;;;5.75;1.42;;;;;;;17.96;40.27;99780.41;4480402;31;33082;-81
2024/03/06 11:23:32;;;;;;;2.22;2.03;;;;;;;18.12;40.15;99778.28;4489944;31;33083;-81
2024/03/06 11:26:08;;;;;;;9.50;1.35;;;;;;;18.30;39.67;99775.19;4493323;31;33082;-81
2024/03/06 11:28:38;;;;;;;1.55;0.88;;;;;;;17.91;41.14;99774.56;4467351;31;32215;-81
2024/03/06 11:31:06;;;;;;;1.92;1.48;;;;;;;18.34;41.26;99765.97;4480046;31;32908;-81
2024/03/06 11:33:35;;;;;;;8.02;2.03;;;;;;;18.36;40.32;99764.03;4467365;31;32843;-81
2024/03/06 11:36:25;;;;;;;1.73;1.62;;;;;;;18.52;39.97;99759.22;4480631;31;33126;-81
2024/03/06 11:38:56;;;;;;;2.67;2.30;;;;;;;18.85;39.45;99755.78;4491068;31;32680;-81
2024/03/06 11:41:26;;;;;;;5.15;1.37;;;;;;;18.78;39.56;99754.53;4492030;31;33507;-81
2024/03/06 11:43:55;;;;;;;1.58;1.15;;;;;;;18.94;39.05;99754.16;4466986;31;32175;-81
2024/03/06 11:47:00;;;;;;;6.00;1.27;;;;;;;18.91;39.19;99749.09;4483579;31;32588;-81
2024/03/06 11:49:31;;;;;;;1.52;1.42;;;;;;;19.38;38.81;99744.44;4477844;31;90680;-81